Terminal Aerodrome Forecast
Issued by NWS

Home | Current Version | Previous Version | Text Only | Print | Product List | Glossary On
Versions: 1 2 3 4 5 6 7 8 9 10 11 12 13 14 15 16
000
FTUS41 KCAR 061123
TAFPQI
TAF
KPQI 061123Z 0612/0712 VRB03KT P6SM SKC
     FM062000 19006KT P6SM SKC
     FM070800 16005KT 2SM BR SCT003
      AMD LTD TO CLD VIS AND WIND=

USA.gov is the U.S. government's official web portal to all federal, state and local government web resources and services.